createdAt,value
2023-04-19T00:03:15.093Z,8.70
2023-04-19T00:08:17.585Z,6.70
2023-04-19T00:13:20.121Z,6.90
2023-04-19T00:18:22.430Z,6.30
2023-04-19T00:23:25.846Z,8.00
2023-04-19T00:28:28.216Z,7.17
2023-04-19T00:33:30.604Z,6.00
2023-04-19T00:38:32.958Z,6.70
2023-04-19T00:43:35.373Z,6.33
2023-04-19T00:48:37.921Z,6.07
2023-04-19T00:53:41.421Z,6.30
2023-04-19T00:58:44.112Z,5.50
2023-04-19T01:03:47.574Z,5.53
2023-04-19T01:08:50.023Z,4.87
2023-04-19T01:13:52.491Z,5.80
2023-04-19T01:18:55.209Z,5.40
2023-04-19T01:23:57.540Z,5.40
2023-04-19T01:28:59.855Z,4.87
2023-04-19T01:34:02.026Z,5.00
2023-04-19T01:39:04.357Z,4.47
2023-04-19T01:44:06.771Z,6.40
2023-04-19T01:49:10.172Z,6.10
2023-04-19T01:54:12.655Z,7.63
2023-04-19T01:59:15.105Z,10.53
2023-04-19T02:04:20.557Z,8.40
2023-04-19T02:09:22.829Z,9.17
2023-04-19T02:14:25.176Z,10.20
2023-04-19T02:19:28.957Z,10.00
2023-04-19T02:24:31.398Z,10.00
2023-04-19T02:29:34.200Z,10.33
2023-04-19T02:34:36.888Z,9.47
2023-04-19T02:39:39.222Z,11.20
2023-04-19T02:44:41.585Z,10.53
2023-04-19T02:49:44.609Z,10.00
2023-04-19T02:54:47.473Z,11.83
2023-04-19T02:59:49.832Z,9.63
2023-04-19T03:04:53.234Z,9.33
2023-04-19T03:09:55.972Z,8.97
2023-04-19T03:14:58.290Z,8.30
2023-04-19T03:20:01.684Z,8.00
2023-04-19T03:25:07.080Z,9.57
2023-04-19T03:30:11.638Z,7.33
2023-04-19T03:35:14.858Z,6.80
2023-04-19T03:40:17.358Z,6.50
2023-04-19T03:45:20.460Z,6.33
2023-04-19T03:50:23.565Z,6.40
2023-04-19T03:55:28.818Z,5.57
2023-04-19T04:00:31.384Z,5.67
2023-04-19T04:05:36.979Z,7.73
2023-04-19T04:10:39.471Z,8.63
2023-04-19T04:15:42.158Z,9.40
2023-04-19T04:20:47.907Z,8.03
2023-04-19T04:26:00.638Z,7.87
2023-04-19T04:31:13.157Z,7.70
2023-04-19T04:36:17.025Z,9.37
2023-04-19T04:41:22.712Z,8.83
2023-04-19T04:46:25.940Z,8.37
2023-04-19T04:51:28.793Z,8.23
2023-04-19T04:56:32.662Z,9.93
2023-04-19T05:01:35.417Z,10.20
2023-04-19T05:06:40.805Z,10.47
2023-04-19T05:11:44.683Z,10.00
2023-04-19T05:16:47.296Z,9.77
2023-04-19T05:21:49.709Z,9.70
2023-04-19T05:26:52.663Z,10.03
2023-04-19T05:31:55.214Z,9.83
2023-04-19T05:37:05.738Z,9.83
2023-04-19T05:42:08.294Z,8.80
2023-04-19T05:47:11.609Z,8.80
2023-04-19T05:52:32.423Z,9.70
2023-04-19T05:57:36.160Z,11.90
2023-04-19T06:02:38.640Z,13.30
2023-04-19T06:07:47.132Z,15.20
2023-04-19T06:12:56.640Z,15.50
2023-04-19T06:17:59.986Z,15.20
2023-04-19T06:23:02.189Z,15.97
2023-04-19T06:28:04.527Z,17.90
2023-04-19T06:33:06.880Z,21.50
2023-04-19T06:38:09.010Z,19.20
2023-04-19T06:43:11.363Z,21.30
2023-04-19T06:48:13.659Z,19.20
2023-04-19T06:53:15.958Z,20.83
2023-04-19T06:58:18.138Z,18.83
2023-04-19T07:03:21.098Z,20.57
2023-04-19T07:08:27.905Z,22.03
2023-04-19T07:13:34.523Z,23.60
2023-04-19T07:18:36.604Z,23.83
2023-04-19T07:23:38.955Z,24.43
2023-04-19T07:28:41.323Z,76.77
2023-04-19T07:33:45.138Z,23.80
2023-04-19T07:38:47.913Z,22.70
2023-04-19T07:43:50.228Z,24.27
2023-04-19T07:48:52.479Z,22.00
2023-04-19T07:53:54.858Z,21.23
2023-04-19T07:59:07.506Z,22.33
2023-04-19T08:04:11.146Z,25.73
2023-04-19T08:09:13.981Z,20.90
2023-04-19T08:14:30.552Z,21.97
2023-04-19T08:19:35.258Z,22.00
2023-04-19T08:24:37.433Z,20.00
2023-04-19T08:29:39.728Z,17.90
2023-04-19T08:34:41.988Z,17.10
2023-04-19T08:39:44.270Z,17.93
2023-04-19T08:50:05.034Z,18.10
2023-04-19T08:55:14.252Z,17.50
2023-04-19T09:00:17.101Z,15.70
2023-04-19T09:05:20.404Z,16.83
2023-04-19T09:10:22.827Z,17.90
2023-04-19T09:15:38.281Z,15.40
2023-04-19T09:20:45.599Z,16.43
2023-04-19T09:36:32.695Z,16.70
2023-04-19T09:41:38.944Z,16.50
2023-04-19T09:46:53.144Z,15.77
2023-04-19T09:51:57.768Z,13.93
2023-04-19T09:57:01.884Z,15.43
2023-04-19T10:02:06.155Z,14.67
2023-04-19T10:07:29.534Z,14.53
2023-04-19T10:12:52.241Z,15.60
2023-04-19T10:17:55.881Z,15.80
2023-04-19T10:22:58.273Z,13.90
2023-04-19T10:28:00.607Z,14.63
2023-04-19T10:33:04.360Z,15.67
2023-04-19T10:38:16.625Z,15.37
2023-04-19T10:43:20.459Z,14.37
2023-04-19T10:48:30.767Z,14.43
2023-04-19T10:53:48.145Z,14.40
2023-04-19T10:59:08.348Z,14.50
2023-04-19T11:04:15.185Z,14.03
2023-04-19T11:09:36.520Z,13.70
2023-04-19T11:14:53.124Z,14.73
2023-04-19T11:20:00.563Z,12.70
2023-04-19T11:25:21.092Z,13.20
2023-04-19T11:30:30.749Z,10.87
2023-04-19T11:35:32.970Z,9.20
2023-04-19T11:40:37.524Z,8.90
2023-04-19T11:45:40.340Z,7.60
2023-04-19T11:50:45.405Z,8.77
2023-04-19T11:55:51.430Z,8.93
2023-04-19T12:00:53.792Z,7.63
2023-04-19T12:06:03.861Z,6.80
2023-04-19T12:11:07.238Z,6.73
2023-04-19T12:16:09.688Z,7.40
2023-04-19T12:21:23.539Z,8.17
2023-04-19T12:26:28.518Z,10.90
2023-04-19T12:31:32.957Z,8.90
2023-04-19T12:36:35.291Z,10.70
2023-04-19T12:41:37.645Z,9.23
2023-04-19T12:46:40.022Z,10.60
2023-04-19T12:51:42.839Z,9.57
2023-04-19T12:56:45.030Z,10.27
2023-04-19T13:01:47.319Z,8.60
2023-04-19T13:06:49.479Z,10.70
2023-04-19T13:11:51.574Z,10.63
2023-04-19T13:16:54.147Z,11.50
2023-04-19T13:21:56.395Z,10.77
2023-04-19T13:26:58.668Z,11.30
2023-04-19T13:32:00.961Z,11.80
2023-04-19T13:37:03.203Z,9.27
2023-04-19T13:42:06.107Z,9.10
2023-04-19T13:47:08.427Z,8.97
2023-04-19T13:52:11.638Z,9.43
2023-04-19T13:57:13.864Z,9.53
2023-04-19T14:02:16.314Z,10.20
2023-04-19T14:07:18.627Z,9.33
2023-04-19T14:12:21.092Z,10.03
2023-04-19T14:17:23.394Z,8.43
2023-04-19T14:22:25.710Z,9.67
2023-04-19T14:27:28.018Z,10.60
2023-04-19T14:32:30.420Z,9.37
2023-04-19T14:37:32.805Z,9.57
2023-04-19T14:42:34.914Z,9.00
2023-04-19T14:47:37.132Z,9.40
2023-04-19T14:52:39.417Z,8.77
2023-04-19T14:57:41.612Z,9.40
2023-04-19T15:02:44.066Z,9.07
2023-04-19T15:07:46.245Z,8.37
2023-04-19T15:12:48.337Z,9.43
2023-04-19T15:17:51.097Z,8.47
2023-04-19T15:22:53.380Z,8.37
2023-04-19T15:27:55.842Z,8.53
2023-04-19T15:32:57.983Z,8.83
2023-04-19T15:38:00.206Z,9.20
2023-04-19T15:43:02.309Z,7.97
2023-04-19T15:48:04.700Z,8.60
2023-04-19T15:53:08.351Z,8.40
2023-04-19T15:58:10.609Z,9.17
2023-04-19T16:03:13.017Z,8.90
2023-04-19T16:08:19.174Z,9.00
2023-04-19T16:13:21.482Z,9.30
2023-04-19T16:18:24.816Z,9.00
2023-04-19T16:23:27.251Z,9.10
2023-04-19T16:28:29.580Z,10.00
2023-04-19T16:33:31.693Z,9.73
2023-04-19T16:38:33.815Z,9.23
2023-04-19T16:43:36.892Z,8.73
2023-04-19T16:48:39.170Z,8.80
2023-04-19T16:53:41.289Z,9.00
2023-04-19T16:58:43.425Z,9.27
2023-04-19T17:03:46.633Z,10.20
2023-04-19T17:08:48.982Z,9.70
2023-04-19T17:13:51.085Z,10.27
2023-04-19T17:18:56.187Z,9.60
2023-04-19T17:23:58.430Z,9.60
2023-04-19T17:29:02.033Z,10.30
2023-04-19T17:34:04.397Z,50.60
2023-04-19T17:39:07.846Z,9.90
2023-04-19T17:44:10.040Z,10.63
2023-04-19T17:49:13.033Z,10.50
2023-04-19T17:54:16.335Z,10.50
2023-04-19T17:59:18.765Z,11.03
2023-04-19T18:04:21.410Z,11.00
2023-04-19T18:09:23.891Z,10.60
2023-04-19T18:14:26.035Z,9.20
2023-04-19T18:19:28.281Z,11.23
2023-04-19T18:24:30.511Z,10.80
2023-04-19T18:29:32.869Z,9.63
2023-04-19T18:34:35.209Z,8.60
2023-04-19T18:39:37.422Z,9.23
2023-04-19T18:49:55.816Z,11.50
2023-04-19T18:55:06.972Z,11.40
2023-04-19T19:00:11.270Z,10.47
2023-04-19T19:05:15.918Z,8.37
2023-04-19T19:10:21.867Z,7.83
2023-04-19T19:15:24.799Z,6.53
2023-04-19T19:20:27.122Z,10.17
2023-04-19T19:25:29.323Z,7.50
2023-04-19T19:30:33.726Z,7.13
2023-04-19T19:35:36.140Z,6.73
2023-04-19T19:40:59.423Z,5.67
2023-04-19T19:46:02.029Z,6.23
2023-04-19T19:51:31.477Z,6.43
2023-04-19T19:56:28.129Z,6.10
2023-04-19T20:01:31.803Z,5.60
2023-04-19T20:11:38.985Z,4.57
2023-04-19T20:16:41.336Z,4.40
2023-04-19T20:21:43.708Z,3.67
2023-04-19T20:26:45.968Z,3.53
2023-04-19T20:31:48.133Z,2.80
2023-04-19T20:36:50.347Z,2.80
2023-04-19T20:41:54.012Z,2.57
2023-04-19T20:46:56.882Z,2.30
2023-04-19T20:51:59.038Z,2.80
2023-04-19T20:57:04.620Z,2.53
2023-04-19T21:02:08.002Z,2.70
2023-04-19T21:07:10.855Z,2.73
2023-04-19T21:12:12.982Z,3.37
2023-04-19T21:17:15.224Z,3.60
2023-04-19T21:22:17.540Z,3.97
2023-04-19T21:27:19.657Z,3.20
2023-04-19T21:32:22.665Z,3.70
2023-04-19T21:37:25.182Z,3.67
2023-04-19T21:42:27.415Z,2.80
2023-04-19T21:47:29.632Z,3.33
2023-04-19T21:52:31.773Z,3.70
2023-04-19T21:57:34.016Z,3.93
2023-04-19T22:02:36.504Z,3.97
2023-04-19T22:07:40.058Z,3.80
2023-04-19T22:12:55.080Z,4.90
2023-04-19T22:18:03.220Z,5.20
2023-04-19T22:23:05.894Z,5.17
2023-04-19T22:28:08.228Z,5.17
2023-04-19T22:33:10.636Z,5.30
2023-04-19T22:38:12.804Z,5.57
2023-04-19T22:43:15.118Z,4.40
2023-04-19T22:48:17.740Z,4.73
2023-04-19T22:53:20.004Z,4.70
2023-04-19T22:58:22.934Z,4.70
2023-04-19T23:03:25.656Z,4.87
2023-04-19T23:08:28.836Z,5.37
2023-04-19T23:13:31.083Z,5.47
2023-04-19T23:18:33.433Z,5.50
2023-04-19T23:23:35.612Z,4.53
2023-04-19T23:28:38.018Z,5.13
2023-04-19T23:33:40.401Z,5.43
2023-04-19T23:38:42.562Z,4.87
2023-04-19T23:43:46.522Z,5.10
2023-04-19T23:48:48.746Z,5.10
2023-04-19T23:53:50.985Z,6.60
2023-04-19T23:58:53.252Z,5.93
